sensor_id;sensor_type;location;lat;lon;timestamp;pressure;altitude;pressure_sealevel;temperature;humidity
9415;BME280;4746;35.664;139.738;2023-07-13T00:01:18;99439.31;;;33.34;44.66
9415;BME280;4746;35.664;139.738;2023-07-13T00:03:46;99427.50;;;33.28;44.73
9415;BME280;4746;35.664;139.738;2023-07-13T00:06:14;99431.56;;;33.23;44.39
9415;BME280;4746;35.664;139.738;2023-07-13T00:08:42;99409.41;;;33.15;44.25
9415;BME280;4746;35.664;139.738;2023-07-13T00:11:10;99421.31;;;33.11;43.93
9415;BME280;4746;35.664;139.738;2023-07-13T00:13:37;99408.03;;;33.11;44.46
9415;BME280;4746;35.664;139.738;2023-07-13T00:16:07;99410.78;;;33.18;44.09
9415;BME280;4746;35.664;139.738;2023-07-13T00:18:34;99398.88;;;33.22;43.70
9415;BME280;4746;35.664;139.738;2023-07-13T00:21:02;99411.53;;;33.28;43.76
9415;BME280;4746;35.664;139.738;2023-07-13T00:23:40;99406.31;;;33.36;44.58
9415;BME280;4746;35.664;139.738;2023-07-13T00:26:11;99414.97;;;33.38;44.19
9415;BME280;4746;35.664;139.738;2023-07-13T00:28:40;99426.28;;;33.40;44.38
9415;BME280;4746;35.664;139.738;2023-07-13T00:31:10;99406.69;;;33.41;44.26
9415;BME280;4746;35.664;139.738;2023-07-13T00:33:38;99396.06;;;33.41;44.94
9415;BME280;4746;35.664;139.738;2023-07-13T00:36:08;99360.00;;;33.39;44.82
9415;BME280;4746;35.664;139.738;2023-07-13T00:38:36;99350.03;;;33.41;45.02
9415;BME280;4746;35.664;139.738;2023-07-13T00:41:05;99350.06;;;33.58;44.62
9415;BME280;4746;35.664;139.738;2023-07-13T00:43:33;99342.44;;;33.81;44.14
9415;BME280;4746;35.664;139.738;2023-07-13T00:46:12;99359.44;;;34.13;43.82
9415;BME280;4746;35.664;139.738;2023-07-13T00:48:43;99359.84;;;34.26;43.36
9415;BME280;4746;35.664;139.738;2023-07-13T00:51:12;99367.13;;;34.49;43.57
9415;BME280;4746;35.664;139.738;2023-07-13T00:53:41;99363.56;;;34.66;43.60
9415;BME280;4746;35.664;139.738;2023-07-13T00:56:09;99366.63;;;34.79;43.16
9415;BME280;4746;35.664;139.738;2023-07-13T00:58:38;99365.47;;;34.89;42.46
9415;BME280;4746;35.664;139.738;2023-07-13T01:01:05;99378.53;;;35.00;42.62
9415;BME280;4746;35.664;139.738;2023-07-13T01:03:34;99371.38;;;35.01;42.41
9415;BME280;4746;35.664;139.738;2023-07-13T01:06:03;99372.22;;;35.09;42.32
9415;BME280;4746;35.664;139.738;2023-07-13T01:08:31;99365.88;;;35.02;42.47
9415;BME280;4746;35.664;139.738;2023-07-13T01:10:59;99373.56;;;35.05;42.67
9415;BME280;4746;35.664;139.738;2023-07-13T01:13:27;99387.53;;;35.07;42.60
9415;BME280;4746;35.664;139.738;2023-07-13T01:15:58;99377.91;;;35.14;42.67
9415;BME280;4746;35.664;139.738;2023-07-13T01:18:31;99380.09;;;35.27;42.64
9415;BME280;4746;35.664;139.738;2023-07-13T01:21:03;99369.59;;;35.33;42.44
9415;BME280;4746;35.664;139.738;2023-07-13T01:23:32;99358.59;;;35.44;42.24
9415;BME280;4746;35.664;139.738;2023-07-13T01:26:00;99361.97;;;35.62;42.36
9415;BME280;4746;35.664;139.738;2023-07-13T01:28:29;99366.66;;;35.76;41.34
9415;BME280;4746;35.664;139.738;2023-07-13T01:30:59;99386.66;;;35.88;41.24
9415;BME280;4746;35.664;139.738;2023-07-13T01:33:27;99391.66;;;35.99;40.67
9415;BME280;4746;35.664;139.738;2023-07-13T01:35:54;99380.13;;;36.06;40.56
9415;BME280;4746;35.664;139.738;2023-07-13T01:38:25;99384.31;;;36.08;39.56
9415;BME280;4746;35.664;139.738;2023-07-13T01:40:53;99395.66;;;36.10;39.79
9415;BME280;4746;35.664;139.738;2023-07-13T01:43:21;99383.97;;;36.04;39.43
9415;BME280;4746;35.664;139.738;2023-07-13T01:45:49;99386.00;;;35.94;38.71
9415;BME280;4746;35.664;139.738;2023-07-13T01:48:16;99371.31;;;35.82;38.59
9415;BME280;4746;35.664;139.738;2023-07-13T01:50:44;99384.66;;;35.74;37.90
9415;BME280;4746;35.664;139.738;2023-07-13T01:53:13;99387.63;;;35.79;37.76
9415;BME280;4746;35.664;139.738;2023-07-13T01:55:42;99379.28;;;35.90;37.38
9415;BME280;4746;35.664;139.738;2023-07-13T01:58:09;99393.97;;;36.09;37.23
9415;BME280;4746;35.664;139.738;2023-07-13T02:00:37;99392.94;;;36.18;37.02
9415;BME280;4746;35.664;139.738;2023-07-13T02:03:04;99366.94;;;36.20;36.09
9415;BME280;4746;35.664;139.738;2023-07-13T02:05:32;99375.25;;;36.33;36.22
9415;BME280;4746;35.664;139.738;2023-07-13T02:08:01;99387.25;;;36.45;36.08
9415;BME280;4746;35.664;139.738;2023-07-13T02:10:29;99401.59;;;36.44;35.92
9415;BME280;4746;35.664;139.738;2023-07-13T02:12:56;99411.94;;;36.31;35.85
9415;BME280;4746;35.664;139.738;2023-07-13T02:15:24;99392.31;;;36.01;36.04
9415;BME280;4746;35.664;139.738;2023-07-13T02:17:51;99396.97;;;35.91;36.18
9415;BME280;4746;35.664;139.738;2023-07-13T02:20:19;99386.81;;;35.78;36.62
9415;BME280;4746;35.664;139.738;2023-07-13T02:22:47;99379.97;;;35.76;36.95
9415;BME280;4746;35.664;139.738;2023-07-13T02:25:14;99372.94;;;35.83;36.83
9415;BME280;4746;35.664;139.738;2023-07-13T02:27:42;99369.28;;;35.92;37.29
9415;BME280;4746;35.664;139.738;2023-07-13T02:30:11;99368.28;;;36.01;37.43
9415;BME280;4746;35.664;139.738;2023-07-13T02:32:38;99356.63;;;36.02;37.29
9415;BME280;4746;35.664;139.738;2023-07-13T02:35:06;99352.94;;;36.10;37.18
9415;BME280;4746;35.664;139.738;2023-07-13T02:37:34;99349.56;;;36.24;36.95
9415;BME280;4746;35.664;139.738;2023-07-13T02:40:02;99343.69;;;36.45;36.93
9415;BME280;4746;35.664;139.738;2023-07-13T02:42:35;99343.16;;;36.57;36.80
9415;BME280;4746;35.664;139.738;2023-07-13T02:45:06;99340.63;;;36.56;36.65
9415;BME280;4746;35.664;139.738;2023-07-13T02:47:36;99337.66;;;36.51;37.22
9415;BME280;4746;35.664;139.738;2023-07-13T02:50:04;99339.19;;;36.45;37.33
9415;BME280;4746;35.664;139.738;2023-07-13T02:52:32;99332.34;;;36.35;37.80
9415;BME280;4746;35.664;139.738;2023-07-13T02:55:00;99329.00;;;36.33;37.99
9415;BME280;4746;35.664;139.738;2023-07-13T02:57:27;99325.69;;;36.31;38.00
9415;BME280;4746;35.664;139.738;2023-07-13T02:59:55;99320.00;;;36.34;37.71
9415;BME280;4746;35.664;139.738;2023-07-13T03:02:22;99327.81;;;36.35;37.89
9415;BME280;4746;35.664;139.738;2023-07-13T03:04:50;99317.53;;;36.40;37.70
9415;BME280;4746;35.664;139.738;2023-07-13T03:07:17;99314.84;;;36.40;38.46
9415;BME280;4746;35.664;139.738;2023-07-13T03:09:45;99310.16;;;36.34;37.69
9415;BME280;4746;35.664;139.738;2023-07-13T03:12:12;99313.19;;;36.23;38.33
9415;BME280;4746;35.664;139.738;2023-07-13T03:14:40;99312.91;;;36.10;38.11
9415;BME280;4746;35.664;139.738;2023-07-13T03:17:07;99309.78;;;35.99;38.35
9415;BME280;4746;35.664;139.738;2023-07-13T03:19:35;99296.13;;;35.94;37.99
9415;BME280;4746;35.664;139.738;2023-07-13T03:22:02;99296.94;;;35.95;37.66
9415;BME280;4746;35.664;139.738;2023-07-13T03:24:32;99283.25;;;35.90;38.02
9415;BME280;4746;35.664;139.738;2023-07-13T03:27:01;99292.28;;;35.97;38.61
9415;BME280;4746;35.664;139.738;2023-07-13T03:29:29;99286.75;;;35.98;38.69
9415;BME280;4746;35.664;139.738;2023-07-13T03:31:57;99277.56;;;36.01;38.40
9415;BME280;4746;35.664;139.738;2023-07-13T03:34:24;99283.59;;;35.95;38.37
9415;BME280;4746;35.664;139.738;2023-07-13T03:36:55;99282.25;;;35.91;37.89
9415;BME280;4746;35.664;139.738;2023-07-13T03:39:23;99265.25;;;35.92;38.62
9415;BME280;4746;35.664;139.738;2023-07-13T03:41:50;99270.09;;;35.96;37.66
9415;BME280;4746;35.664;139.738;2023-07-13T03:44:19;99258.22;;;35.91;37.43
9415;BME280;4746;35.664;139.738;2023-07-13T03:46:46;99266.59;;;35.80;37.31
9415;BME280;4746;35.664;139.738;2023-07-13T03:49:14;99280.94;;;35.71;37.99
9415;BME280;4746;35.664;139.738;2023-07-13T03:51:41;99283.31;;;35.58;37.86
9415;BME280;4746;35.664;139.738;2023-07-13T03:54:09;99265.97;;;35.54;37.87
9415;BME280;4746;35.664;139.738;2023-07-13T03:56:36;99278.31;;;35.55;38.45
9415;BME280;4746;35.664;139.738;2023-07-13T03:59:04;99288.97;;;35.63;37.92
9415;BME280;4746;35.664;139.738;2023-07-13T04:01:35;99280.81;;;35.72;37.94
9415;BME280;4746;35.664;139.738;2023-07-13T04:04:47;99281.28;;;35.76;38.14
9415;BME280;4746;35.664;139.738;2023-07-13T04:07:22;99270.94;;;35.73;37.62
9415;BME280;4746;35.664;139.738;2023-07-13T04:09:50;99272.63;;;35.66;38.01
9415;BME280;4746;35.664;139.738;2023-07-13T04:12:18;99271.63;;;35.75;38.27
9415;BME280;4746;35.664;139.738;2023-07-13T04:14:48;99273.28;;;35.76;38.48
9415;BME280;4746;35.664;139.738;2023-07-13T04:17:16;99264.81;;;35.72;38.73
9415;BME280;4746;35.664;139.738;2023-07-13T04:19:43;99274.97;;;35.69;39.33
9415;BME280;4746;35.664;139.738;2023-07-13T04:22:14;99276.63;;;35.70;38.70
9415;BME280;4746;35.664;139.738;2023-07-13T04:24:45;99263.97;;;35.64;40.18
9415;BME280;4746;35.664;139.738;2023-07-13T04:27:23;99261.28;;;35.72;40.15
9415;BME280;4746;35.664;139.738;2023-07-13T04:29:52;99258.47;;;35.65;40.26
9415;BME280;4746;35.664;139.738;2023-07-13T04:32:20;99266.78;;;35.62;40.05
9415;BME280;4746;35.664;139.738;2023-07-13T04:34:49;99263.16;;;35.55;40.42
9415;BME280;4746;35.664;139.738;2023-07-13T04:37:21;99254.13;;;35.56;40.21
9415;BME280;4746;35.664;139.738;2023-07-13T04:39:49;99233.47;;;35.66;39.69
9415;BME280;4746;35.664;139.738;2023-07-13T04:42:19;99235.22;;;35.90;39.58
9415;BME280;4746;35.664;139.738;2023-07-13T04:44:51;99237.03;;;36.05;39.52
9415;BME280;4746;35.664;139.738;2023-07-13T04:47:19;99242.69;;;36.10;39.13
9415;BME280;4746;35.664;139.738;2023-07-13T04:49:47;99279.88;;;36.11;39.16
9415;BME280;4746;35.664;139.738;2023-07-13T04:52:14;99289.28;;;36.00;39.81
9415;BME280;4746;35.664;139.738;2023-07-13T04:54:42;99305.97;;;35.94;40.01
9415;BME280;4746;35.664;139.738;2023-07-13T04:57:09;99304.94;;;35.71;40.18
9415;BME280;4746;35.664;139.738;2023-07-13T04:59:37;99302.63;;;35.60;41.39
9415;BME280;4746;35.664;139.738;2023-07-13T05:02:05;99305.66;;;35.57;41.90
9415;BME280;4746;35.664;139.738;2023-07-13T05:04:33;99308.00;;;35.52;42.39
9415;BME280;4746;35.664;139.738;2023-07-13T05:07:01;99304.16;;;35.54;42.37
9415;BME280;4746;35.664;139.738;2023-07-13T05:09:28;99319.31;;;35.62;42.14
9415;BME280;4746;35.664;139.738;2023-07-13T05:11:56;99307.13;;;35.43;42.45
9415;BME280;4746;35.664;139.738;2023-07-13T05:14:24;99307.63;;;35.31;43.17
9415;BME280;4746;35.664;139.738;2023-07-13T05:16:51;99301.47;;;35.15;43.20
9415;BME280;4746;35.664;139.738;2023-07-13T05:19:19;99306.28;;;35.11;42.83
9415;BME280;4746;35.664;139.738;2023-07-13T05:21:46;99295.63;;;35.03;42.97
9415;BME280;4746;35.664;139.738;2023-07-13T05:24:14;99299.28;;;35.10;43.32
9415;BME280;4746;35.664;139.738;2023-07-13T05:26:41;99304.28;;;35.13;43.07
9415;BME280;4746;35.664;139.738;2023-07-13T05:29:09;99285.81;;;35.20;42.86
9415;BME280;4746;35.664;139.738;2023-07-13T05:31:36;99295.63;;;35.27;42.84
9415;BME280;4746;35.664;139.738;2023-07-13T05:34:04;99304.94;;;35.31;42.61
9415;BME280;4746;35.664;139.738;2023-07-13T05:36:32;99288.31;;;35.45;42.81
9415;BME280;4746;35.664;139.738;2023-07-13T05:39:00;99301.00;;;35.59;42.47
9415;BME280;4746;35.664;139.738;2023-07-13T05:41:28;99303.13;;;35.63;41.67
9415;BME280;4746;35.664;139.738;2023-07-13T05:43:57;99302.00;;;35.58;42.17
9415;BME280;4746;35.664;139.738;2023-07-13T05:46:27;99308.31;;;35.57;42.04
9415;BME280;4746;35.664;139.738;2023-07-13T05:48:54;99324.94;;;35.43;41.76
9415;BME280;4746;35.664;139.738;2023-07-13T05:51:22;99320.94;;;35.31;41.68
9415;BME280;4746;35.664;139.738;2023-07-13T05:53:50;99321.25;;;35.12;41.14
9415;BME280;4746;35.664;139.738;2023-07-13T05:56:17;99327.75;;;35.02;41.53
9415;BME280;4746;35.664;139.738;2023-07-13T05:58:45;99328.91;;;34.99;41.38
9415;BME280;4746;35.664;139.738;2023-07-13T06:01:16;99323.41;;;35.01;41.22
9415;BME280;4746;35.664;139.738;2023-07-13T06:03:46;99324.25;;;35.01;41.26
9415;BME280;4746;35.664;139.738;2023-07-13T06:06:17;99325.53;;;34.97;41.66
9415;BME280;4746;35.664;139.738;2023-07-13T06:08:44;99341.19;;;34.92;41.19
9415;BME280;4746;35.664;139.738;2023-07-13T06:11:19;99345.72;;;35.00;41.66
9415;BME280;4746;35.664;139.738;2023-07-13T06:13:48;99348.19;;;34.93;41.67
9415;BME280;4746;35.664;139.738;2023-07-13T06:16:17;99338.88;;;34.97;41.57
9415;BME280;4746;35.664;139.738;2023-07-13T06:18:45;99330.41;;;35.10;40.91
9415;BME280;4746;35.664;139.738;2023-07-13T06:21:20;99314.94;;;35.21;40.83
9415;BME280;4746;35.664;139.738;2023-07-13T06:23:50;99323.28;;;35.26;41.74
9415;BME280;4746;35.664;139.738;2023-07-13T06:26:20;99319.44;;;35.29;40.49
9415;BME280;4746;35.664;139.738;2023-07-13T06:28:48;99323.59;;;35.31;40.69
9415;BME280;4746;35.664;139.738;2023-07-13T06:31:15;99323.44;;;35.40;39.73
9415;BME280;4746;35.664;139.738;2023-07-13T06:33:46;99317.63;;;35.45;40.00
9415;BME280;4746;35.664;139.738;2023-07-13T06:36:15;99303.00;;;35.57;40.70
9415;BME280;4746;35.664;139.738;2023-07-13T06:38:43;99297.63;;;35.73;40.36
9415;BME280;4746;35.664;139.738;2023-07-13T06:41:11;99284.25;;;35.97;39.33
9415;BME280;4746;35.664;139.738;2023-07-13T06:43:39;99303.25;;;36.09;39.33
9415;BME280;4746;35.664;139.738;2023-07-13T06:46:07;99302.38;;;36.17;39.08
9415;BME280;4746;35.664;139.738;2023-07-13T06:48:35;99299.19;;;36.21;39.47
9415;BME280;4746;35.664;139.738;2023-07-13T06:51:04;99309.50;;;36.24;39.17
9415;BME280;4746;35.664;139.738;2023-07-13T06:53:32;99326.56;;;36.15;39.60
9415;BME280;4746;35.664;139.738;2023-07-13T06:55:59;99319.25;;;36.02;39.73
9415;BME280;4746;35.664;139.738;2023-07-13T06:58:27;99330.28;;;35.99;40.03
9415;BME280;4746;35.664;139.738;2023-07-13T07:00:56;99319.25;;;36.02;39.95
9415;BME280;4746;35.664;139.738;2023-07-13T07:03:23;99325.94;;;36.06;39.84
9415;BME280;4746;35.664;139.738;2023-07-13T07:05:51;99322.56;;;36.11;39.94
9415;BME280;4746;35.664;139.738;2023-07-13T07:08:19;99318.94;;;36.05;40.14
9415;BME280;4746;35.664;139.738;2023-07-13T07:10:47;99312.63;;;35.98;40.32
9415;BME280;4746;35.664;139.738;2023-07-13T07:13:18;99310.63;;;36.00;40.29
9415;BME280;4746;35.664;139.738;2023-07-13T07:15:55;99309.59;;;36.01;40.52
9415;BME280;4746;35.664;139.738;2023-07-13T07:18:23;99314.25;;;35.91;40.25
9415;BME280;4746;35.664;139.738;2023-07-13T07:20:50;99313.81;;;35.79;40.55
9415;BME280;4746;35.664;139.738;2023-07-13T07:23:18;99323.44;;;35.80;39.91
9415;BME280;4746;35.664;139.738;2023-07-13T07:25:46;99319.97;;;35.72;40.04
9415;BME280;4746;35.664;139.738;2023-07-13T07:28:16;99319.13;;;35.63;40.33
9415;BME280;4746;35.664;139.738;2023-07-13T07:30:47;99310.00;;;35.58;40.72
9415;BME280;4746;35.664;139.738;2023-07-13T07:33:15;99307.66;;;35.55;40.71
9415;BME280;4746;35.664;139.738;2023-07-13T07:35:43;99317.31;;;35.56;40.58
9415;BME280;4746;35.664;139.738;2023-07-13T07:38:11;99305.97;;;35.62;40.59
9415;BME280;4746;35.664;139.738;2023-07-13T07:40:40;99302.63;;;35.60;40.63
9415;BME280;4746;35.664;139.738;2023-07-13T07:43:11;99298.66;;;35.64;40.40
9415;BME280;4746;35.664;139.738;2023-07-13T07:45:40;99307.16;;;35.67;41.11
9415;BME280;4746;35.664;139.738;2023-07-13T07:48:11;99308.47;;;35.63;41.06
9415;BME280;4746;35.664;139.738;2023-07-13T07:50:42;99314.97;;;35.61;40.70
9415;BME280;4746;35.664;139.738;2023-07-13T07:53:11;99320.66;;;35.58;41.21
9415;BME280;4746;35.664;139.738;2023-07-13T07:55:39;99324.31;;;35.57;40.77
9415;BME280;4746;35.664;139.738;2023-07-13T07:58:07;99326.31;;;35.63;40.73
9415;BME280;4746;35.664;139.738;2023-07-13T08:00:35;99336.31;;;35.61;41.08
9415;BME280;4746;35.664;139.738;2023-07-13T08:03:03;99335.31;;;35.62;40.69
9415;BME280;4746;35.664;139.738;2023-07-13T08:05:30;99340.97;;;35.67;40.89
9415;BME280;4746;35.664;139.738;2023-07-13T08:07:58;99347.31;;;35.98;40.51
9415;BME280;4746;35.664;139.738;2023-07-13T08:10:26;99348.75;;;37.75;37.90
9415;BME280;4746;35.664;139.738;2023-07-13T08:12:53;99345.56;;;38.09;37.04
9415;BME280;4746;35.664;139.738;2023-07-13T08:15:21;99334.72;;;37.73;37.61
9415;BME280;4746;35.664;139.738;2023-07-13T08:17:50;99336.50;;;37.58;37.99
9415;BME280;4746;35.664;139.738;2023-07-13T08:20:17;99340.41;;;37.34;37.76
9415;BME280;4746;35.664;139.738;2023-07-13T08:22:45;99336.53;;;37.06;38.06
9415;BME280;4746;35.664;139.738;2023-07-13T08:25:13;99340.03;;;36.84;38.75
9415;BME280;4746;35.664;139.738;2023-07-13T08:27:40;99348.13;;;36.60;38.41
9415;BME280;4746;35.664;139.738;2023-07-13T08:30:08;99362.91;;;36.40;39.42
9415;BME280;4746;35.664;139.738;2023-07-13T08:32:38;99354.91;;;36.24;39.65
9415;BME280;4746;35.664;139.738;2023-07-13T08:35:07;99355.25;;;36.13;39.89
9415;BME280;4746;35.664;139.738;2023-07-13T08:37:34;99365.63;;;36.01;40.75
9415;BME280;4746;35.664;139.738;2023-07-13T08:40:02;99375.63;;;35.91;39.99
9415;BME280;4746;35.664;139.738;2023-07-13T08:42:45;99383.16;;;35.79;40.31
9415;BME280;4746;35.664;139.738;2023-07-13T08:48:13;99377.97;;;35.54;41.54
9415;BME280;4746;35.664;139.738;2023-07-13T08:54:55;99376.91;;;35.31;41.45
9415;BME280;4746;35.664;139.738;2023-07-13T08:57:08;99363.25;;;35.26;42.39
9415;BME280;4746;35.664;139.738;2023-07-13T08:59:38;99379.91;;;35.20;41.99
9415;BME280;4746;35.664;139.738;2023-07-13T09:11:43;99389.56;;;35.21;42.03
9415;BME280;4746;35.664;139.738;2023-07-13T09:17:29;99403.38;;;35.09;41.53
9415;BME280;4746;35.664;139.738;2023-07-13T09:20:42;99405.19;;;35.00;41.47
9415;BME280;4746;35.664;139.738;2023-07-13T09:23:19;99410.63;;;34.91;41.98
9415;BME280;4746;35.664;139.738;2023-07-13T09:25:53;99416.06;;;34.81;42.36
9415;BME280;4746;35.664;139.738;2023-07-13T09:28:38;99401.91;;;34.81;42.19
9415;BME280;4746;35.664;139.738;2023-07-13T09:31:34;99408.72;;;34.75;41.94
9415;BME280;4746;35.664;139.738;2023-07-13T09:34:14;99414.34;;;34.64;43.33
9415;BME280;4746;35.664;139.738;2023-07-13T09:36:42;99406.63;;;34.54;43.55
9415;BME280;4746;35.664;139.738;2023-07-13T09:42:26;99415.31;;;34.63;42.83
9415;BME280;4746;35.664;139.738;2023-07-13T09:45:01;99409.94;;;34.56;43.77
9415;BME280;4746;35.664;139.738;2023-07-13T09:47:40;99414.19;;;34.49;43.41
9415;BME280;4746;35.664;139.738;2023-07-13T09:50:15;99423.97;;;34.40;43.88
9415;BME280;4746;35.664;139.738;2023-07-13T09:52:49;99424.75;;;34.33;43.79
9415;BME280;4746;35.664;139.738;2023-07-13T09:55:31;99422.16;;;34.41;43.54
9415;BME280;4746;35.664;139.738;2023-07-13T10:00:55;99425.09;;;34.30;44.40
9415;BME280;4746;35.664;139.738;2023-07-13T10:03:34;99411.78;;;34.30;44.39
9415;BME280;4746;35.664;139.738;2023-07-13T10:06:31;99407.97;;;34.32;44.32
9415;BME280;4746;35.664;139.738;2023-07-13T10:09:07;99408.59;;;34.26;44.22
9415;BME280;4746;35.664;139.738;2023-07-13T10:11:39;99404.09;;;34.27;44.25
9415;BME280;4746;35.664;139.738;2023-07-13T10:14:21;99397.31;;;34.32;44.26
9415;BME280;4746;35.664;139.738;2023-07-13T10:17:04;99389.81;;;34.28;44.49
9415;BME280;4746;35.664;139.738;2023-07-13T10:19:36;99400.56;;;34.18;44.52
9415;BME280;4746;35.664;139.738;2023-07-13T10:25:01;99405.69;;;34.12;44.26
9415;BME280;4746;35.664;139.738;2023-07-13T10:27:36;99412.34;;;34.16;44.24
9415;BME280;4746;35.664;139.738;2023-07-13T10:30:15;99416.31;;;34.12;44.79
9415;BME280;4746;35.664;139.738;2023-07-13T10:32:46;99425.75;;;34.06;44.30
9415;BME280;4746;35.664;139.738;2023-07-13T10:35:18;99437.53;;;34.04;44.61
9415;BME280;4746;35.664;139.738;2023-07-13T10:38:07;99430.69;;;34.01;44.77
9415;BME280;4746;35.664;139.738;2023-07-13T10:40:55;99435.63;;;33.96;44.70
9415;BME280;4746;35.664;139.738;2023-07-13T10:43:36;99446.09;;;33.98;45.00
9415;BME280;4746;35.664;139.738;2023-07-13T10:46:22;99448.06;;;33.96;44.98
9415;BME280;4746;35.664;139.738;2023-07-13T10:49:02;99432.72;;;33.90;45.17
9415;BME280;4746;35.664;139.738;2023-07-13T10:51:32;99445.66;;;33.85;45.38
9415;BME280;4746;35.664;139.738;2023-07-13T10:54:37;99451.34;;;33.90;45.00
9415;BME280;4746;35.664;139.738;2023-07-13T10:57:21;99462.31;;;33.87;44.88
9415;BME280;4746;35.664;139.738;2023-07-13T11:00:16;99459.31;;;33.90;45.13
9415;BME280;4746;35.664;139.738;2023-07-13T11:02:59;99450.72;;;33.96;44.97
9415;BME280;4746;35.664;139.738;2023-07-13T11:05:34;99458.41;;;33.99;45.09
9415;BME280;4746;35.664;139.738;2023-07-13T11:10:58;99463.16;;;34.05;44.83
9415;BME280;4746;35.664;139.738;2023-07-13T11:16:47;99462.44;;;34.20;44.95
9415;BME280;4746;35.664;139.738;2023-07-13T11:25:02;99473.91;;;34.21;44.86
9415;BME280;4746;35.664;139.738;2023-07-13T11:27:42;99468.38;;;34.14;44.54
9415;BME280;4746;35.664;139.738;2023-07-13T11:30:36;99470.88;;;34.16;44.98
9415;BME280;4746;35.664;139.738;2023-07-13T11:36:00;99481.72;;;34.22;45.02
9415;BME280;4746;35.664;139.738;2023-07-13T11:41:26;99480.53;;;34.17;44.87
9415;BME280;4746;35.664;139.738;2023-07-13T11:44:11;99485.00;;;34.16;44.77
9415;BME280;4746;35.664;139.738;2023-07-13T11:46:48;99482.50;;;34.15;44.79
9415;BME280;4746;35.664;139.738;2023-07-13T11:49:21;99486.13;;;34.06;45.41
9415;BME280;4746;35.664;139.738;2023-07-13T11:51:49;99494.81;;;33.98;45.00
9415;BME280;4746;35.664;139.738;2023-07-13T11:54:34;99486.69;;;34.00;45.35
9415;BME280;4746;35.664;139.738;2023-07-13T11:57:29;99492.00;;;34.00;45.16
9415;BME280;4746;35.664;139.738;2023-07-13T12:00:26;99492.69;;;34.02;44.96
9415;BME280;4746;35.664;139.738;2023-07-13T12:02:59;99481.38;;;34.00;45.28
9415;BME280;4746;35.664;139.738;2023-07-13T12:05:31;99497.91;;;34.03;45.67
9415;BME280;4746;35.664;139.738;2023-07-13T12:08:00;99501.38;;;34.04;45.42
9415;BME280;4746;35.664;139.738;2023-07-13T12:10:43;99489.34;;;34.00;45.01
9415;BME280;4746;35.664;139.738;2023-07-13T12:13:14;99493.97;;;33.98;45.11
9415;BME280;4746;35.664;139.738;2023-07-13T12:15:45;99491.16;;;33.99;45.53
9415;BME280;4746;35.664;139.738;2023-07-13T12:18:22;99507.81;;;34.01;44.99
9415;BME280;4746;35.664;139.738;2023-07-13T12:20:51;99519.19;;;34.03;44.98
9415;BME280;4746;35.664;139.738;2023-07-13T12:23:31;99526.69;;;34.08;44.91
9415;BME280;4746;35.664;139.738;2023-07-13T12:26:05;99532.00;;;34.08;45.29
9415;BME280;4746;35.664;139.738;2023-07-13T12:28:49;99545.38;;;34.16;44.75
9415;BME280;4746;35.664;139.738;2023-07-13T12:31:31;99547.34;;;34.14;44.92
9415;BME280;4746;35.664;139.738;2023-07-13T12:34:19;99548.94;;;34.07;45.76
9415;BME280;4746;35.664;139.738;2023-07-13T12:36:56;99566.34;;;34.01;45.95
9415;BME280;4746;35.664;139.738;2023-07-13T12:39:44;99568.47;;;33.98;45.87
9415;BME280;4746;35.664;139.738;2023-07-13T12:42:28;99578.72;;;33.93;45.51
9415;BME280;4746;35.664;139.738;2023-07-13T12:45:56;99578.03;;;33.91;46.17
9415;BME280;4746;35.664;139.738;2023-07-13T12:48:24;99570.09;;;33.82;46.43
9415;BME280;4746;35.664;139.738;2023-07-13T12:50:55;99579.59;;;33.84;46.44
9415;BME280;4746;35.664;139.738;2023-07-13T12:53:30;99572.31;;;33.86;46.17
9415;BME280;4746;35.664;139.738;2023-07-13T12:56:03;99567.38;;;33.91;46.49
9415;BME280;4746;35.664;139.738;2023-07-13T12:58:40;99562.00;;;33.83;46.67
9415;BME280;4746;35.664;139.738;2023-07-13T13:01:14;99569.28;;;33.81;46.15
9415;BME280;4746;35.664;139.738;2023-07-13T13:03:53;99566.47;;;33.83;46.26
9415;BME280;4746;35.664;139.738;2023-07-13T13:06:29;99559.94;;;33.77;46.27
9415;BME280;4746;35.664;139.738;2023-07-13T13:08:59;99548.78;;;33.74;46.87
9415;BME280;4746;35.664;139.738;2023-07-13T13:11:31;99554.63;;;33.77;46.56
9415;BME280;4746;35.664;139.738;2023-07-13T13:13:59;99556.59;;;33.75;46.55
9415;BME280;4746;35.664;139.738;2023-07-13T13:16:51;99553.00;;;33.84;46.25
9415;BME280;4746;35.664;139.738;2023-07-13T13:19:27;99555.66;;;33.84;46.13
9415;BME280;4746;35.664;139.738;2023-07-13T13:21:56;99547.56;;;33.86;46.24
9415;BME280;4746;35.664;139.738;2023-07-13T13:24:27;99553.25;;;33.90;46.07
9415;BME280;4746;35.664;139.738;2023-07-13T13:26:56;99548.94;;;33.89;45.94
9415;BME280;4746;35.664;139.738;2023-07-13T13:29:25;99551.44;;;33.91;46.32
9415;BME280;4746;35.664;139.738;2023-07-13T13:31:54;99557.06;;;33.88;45.79
9415;BME280;4746;35.664;139.738;2023-07-13T13:34:23;99562.22;;;33.89;45.98
9415;BME280;4746;35.664;139.738;2023-07-13T13:36:53;99564.06;;;33.89;46.16
9415;BME280;4746;35.664;139.738;2023-07-13T13:39:36;99552.81;;;33.95;46.11
9415;BME280;4746;35.664;139.738;2023-07-13T13:42:05;99561.84;;;33.85;46.59
9415;BME280;4746;35.664;139.738;2023-07-13T13:44:33;99556.00;;;33.81;46.09
9415;BME280;4746;35.664;139.738;2023-07-13T13:47:00;99556.00;;;33.81;46.49
9415;BME280;4746;35.664;139.738;2023-07-13T13:49:30;99545.03;;;33.84;46.72
9415;BME280;4746;35.664;139.738;2023-07-13T13:52:00;99542.69;;;33.81;46.66
9415;BME280;4746;35.664;139.738;2023-07-13T13:54:28;99546.06;;;33.83;46.47
9415;BME280;4746;35.664;139.738;2023-07-13T13:56:56;99552.34;;;33.82;46.41
9415;BME280;4746;35.664;139.738;2023-07-13T13:59:25;99550.66;;;33.81;46.42
9415;BME280;4746;35.664;139.738;2023-07-13T14:01:53;99543.91;;;33.87;46.26
9415;BME280;4746;35.664;139.738;2023-07-13T14:04:22;99538.72;;;33.85;46.30
9415;BME280;4746;35.664;139.738;2023-07-13T14:06:50;99547.19;;;33.81;46.78
9415;BME280;4746;35.664;139.738;2023-07-13T14:09:19;99548.38;;;33.86;46.39